Time;durP1;ratioP1;P1;durP2;ratioP2;P2;SDS_P1;SDS_P2;PMS_P1;PMS_P2;Temp;Humidity;BMP_temperature;BMP_pressure;BME280_temperature;BME280_humidity;BME280_pressure;Samples;Min_cycle;Max_cycle;Signal;HPM_P1;HPM_P2
2022/12/07 00:00:52;;;;;;;5.60;1.50;;;4.80;99.90;;;;;;5072856;28;20232;-78
2022/12/07 00:03:19;;;;;;;6.33;1.30;;;4.80;99.90;;;;;;5072659;28;20288;-79
2022/12/07 00:05:46;;;;;;;10.87;1.50;;;4.80;99.90;;;;;;5071885;28;20672;-83
2022/12/07 00:08:13;;;;;;;4.77;1.17;;;4.90;99.90;;;;;;5072895;28;20203;-80
2022/12/07 00:10:41;;;;;;;5.10;1.00;;;5.00;99.90;;;;;;5072862;28;20217;-81
2022/12/07 00:13:08;;;;;;;5.53;1.20;;;5.00;99.90;;;;;;5072608;28;20308;-81
2022/12/07 00:15:35;;;;;;;4.83;1.50;;;5.00;99.90;;;;;;5072578;28;20221;-82
2022/12/07 00:18:02;;;;;;;3.37;0.87;;;5.10;99.90;;;;;;5071816;28;20205;-80
2022/12/07 00:20:30;;;;;;;5.43;1.10;;;5.00;99.90;;;;;;5072662;28;20284;-81
2022/12/07 00:22:57;;;;;;;3.53;0.90;;;4.90;99.90;;;;;;5072376;28;20205;-80
2022/12/07 00:25:23;;;;;;;1.70;0.70;;;4.90;99.90;;;;;;5072256;28;20758;-81
2022/12/07 00:27:53;;;;;;;3.47;1.20;;;4.80;99.90;;;;;;5054742;28;20241;-81
2022/12/07 00:30:20;;;;;;;1.70;0.60;;;4.70;99.90;;;;;;5072655;28;20522;-79
2022/12/07 00:32:47;;;;;;;2.47;0.90;;;4.60;99.90;;;;;;5071865;28;20286;-79
2022/12/07 00:35:14;;;;;;;3.00;1.00;;;4.60;99.90;;;;;;5072691;28;20288;-83
2022/12/07 00:37:41;;;;;;;1.23;0.80;;;4.50;99.90;;;;;;5072611;28;20286;-81
2022/12/07 00:40:09;;;;;;;2.10;0.67;;;4.50;99.90;;;;;;5072348;28;20193;-79
2022/12/07 00:42:36;;;;;;;2.33;0.90;;;4.40;99.90;;;;;;5072781;28;20289;-79
2022/12/07 00:45:08;;;;;;;3.83;1.20;;;4.40;99.90;;;;;;5075440;28;20618;-82
2022/12/07 00:47:35;;;;;;;5.97;1.00;;;4.40;99.90;;;;;;5073308;28;20193;-81
2022/12/07 00:50:02;;;;;;;4.87;1.20;;;4.50;99.90;;;;;;5072951;28;20208;-82
2022/12/07 00:52:29;;;;;;;7.87;1.30;;;4.60;99.90;;;;;;5056512;28;20275;-81
2022/12/07 00:54:57;;;;;;;3.57;1.40;;;4.60;99.90;;;;;;5072810;28;20615;-81
2022/12/07 00:57:24;;;;;;;5.07;1.50;;;4.70;99.90;;;;;;5072990;28;20589;-82
2022/12/07 00:59:55;;;;;;;7.37;1.70;;;4.70;99.90;;;;;;5073557;28;20213;-82
2022/12/07 01:02:23;;;;;;;2.80;0.90;;;4.70;99.90;;;;;;5072891;28;20189;-81
2022/12/07 01:04:52;;;;;;;4.33;1.10;;;4.70;99.90;;;;;;5072246;28;20296;-81
2022/12/07 01:07:20;;;;;;;3.67;0.93;;;4.70;99.90;;;;;;5074105;28;20205;-81
2022/12/07 01:09:47;;;;;;;2.73;1.10;;;4.70;99.90;;;;;;5093624;28;20283;-81
2022/12/07 01:12:14;;;;;;;3.53;1.10;;;4.60;99.90;;;;;;5093727;28;20526;-80
2022/12/07 01:14:42;;;;;;;4.73;1.00;;;4.60;99.90;;;;;;5087088;28;20201;-81
2022/12/07 01:17:09;;;;;;;3.90;1.00;;;4.60;99.90;;;;;;5073356;28;20295;-78
2022/12/07 01:19:39;;;;;;;2.73;0.90;;;4.50;99.90;;;;;;5076170;28;20211;-82
2022/12/07 01:22:06;;;;;;;3.50;0.80;;;4.50;99.90;;;;;;5076939;28;20257;-81
2022/12/07 01:24:33;;;;;;;3.03;0.87;;;4.40;99.90;;;;;;5093448;22;20229;-83
2022/12/07 01:26:59;;;;;;;5.07;1.57;;;4.40;99.90;;;;;;5077156;28;20212;-81
2022/12/07 01:29:26;;;;;;;3.37;0.93;;;4.30;99.90;;;;;;5076028;28;20204;-82
2022/12/07 01:31:53;;;;;;;0.80;0.70;;;4.30;99.90;;;;;;5076951;28;20221;-79
2022/12/07 01:34:20;;;;;;;3.60;0.70;;;4.20;99.90;;;;;;5077578;28;20605;-80
2022/12/07 01:36:49;;;;;;;2.00;0.97;;;4.20;99.90;;;;;;5076026;28;20200;-81
2022/12/07 01:39:16;;;;;;;3.23;0.73;;;4.20;99.90;;;;;;5077246;28;20282;-81
2022/12/07 01:41:44;;;;;;;5.67;1.00;;;4.20;99.90;;;;;;5076520;28;20298;-82
2022/12/07 01:44:15;;;;;;;5.83;1.10;;;4.20;99.90;;;;;;5076884;28;20202;-82
2022/12/07 01:46:45;;;;;;;4.73;1.20;;;4.20;99.90;;;;;;5076623;28;20649;-81
2022/12/07 01:49:18;;;;;;;3.57;0.93;;;4.20;99.90;;;;;;5080561;28;20197;-83
2022/12/07 01:51:47;;;;;;;5.83;0.90;;;4.20;99.90;;;;;;5075740;28;20328;-79
2022/12/07 01:54:17;;;;;;;7.43;1.40;;;4.20;99.90;;;;;;5076517;28;20205;-81
2022/12/07 01:56:48;;;;;;;5.43;1.00;;;4.10;99.90;;;;;;5075423;28;20284;-81
2022/12/07 01:59:17;;;;;;;4.00;1.20;;;4.20;99.90;;;;;;5076016;28;20276;-81
2022/12/07 02:01:45;;;;;;;2.73;1.03;;;4.20;99.90;;;;;;5075892;28;20611;-80
2022/12/07 02:04:13;;;;;;;3.57;1.30;;;4.30;99.90;;;;;;5088880;22;20595;-81
2022/12/07 02:06:39;;;;;;;3.17;1.13;;;4.20;99.90;;;;;;5084315;28;20213;-79
2022/12/07 02:09:07;;;;;;;5.80;1.80;;;4.20;99.90;;;;;;5076313;28;20284;-81
2022/12/07 02:11:35;;;;;;;9.23;1.80;;;4.20;99.90;;;;;;5084684;22;20336;-80
2022/12/07 02:14:02;;;;;;;7.93;1.50;;;4.20;99.90;;;;;;5084262;28;20225;-81
2022/12/07 02:16:39;;;;;;;6.33;1.33;;;4.30;99.90;;;;;;5076865;28;20213;-78
2022/12/07 02:19:40;;;;;;;10.00;1.40;;;4.30;99.90;;;;;;5074737;28;20643;-79
2022/12/07 02:22:26;;;;;;;11.17;1.70;;;4.30;99.90;;;;;;5075137;28;20211;-80
2022/12/07 02:24:58;;;;;;;12.20;2.00;;;4.40;99.90;;;;;;5074610;28;20217;-80
2022/12/07 02:27:48;;;;;;;8.20;1.50;;;4.40;99.90;;;;;;5074969;28;20213;-81
2022/12/07 02:30:20;;;;;;;8.23;2.07;;;4.40;99.90;;;;;;5074729;28;20299;-78
2022/12/07 02:32:55;;;;;;;11.67;2.37;;;4.50;99.90;;;;;;5074617;28;20518;-80
2022/12/07 02:35:29;;;;;;;8.30;2.03;;;4.60;99.90;;;;;;5075162;28;20664;-80
2022/12/07 02:38:03;;;;;;;8.30;1.53;;;4.60;99.90;;;;;;5075039;28;20205;-81
2022/12/07 02:40:34;;;;;;;24.33;3.33;;;4.70;99.90;;;;;;5074377;28;20745;-82
2022/12/07 02:43:08;;;;;;;7.77;1.60;;;4.70;99.90;;;;;;5075075;28;20200;-81
2022/12/07 02:45:39;;;;;;;8.17;2.00;;;4.80;99.90;;;;;;5074679;28;20224;-80
2022/12/07 02:48:08;;;;;;;6.60;1.40;;;5.00;99.90;;;;;;5074823;28;20193;-80
2022/12/07 02:50:34;;;;;;;10.67;2.07;;;5.10;99.90;;;;;;5074800;28;20204;-81
2022/12/07 02:53:01;;;;;;;12.87;1.67;;;5.20;99.90;;;;;;5074512;28;20212;-81
2022/12/07 02:55:34;;;;;;;7.10;1.57;;;5.30;99.90;;;;;;5075290;28;20206;-82
2022/12/07 02:58:23;;;;;;;10.50;1.87;;;5.40;99.90;;;;;;5074791;28;20197;-82
2022/12/07 03:01:01;;;;;;;4.83;1.37;;;5.50;99.90;;;;;;5075224;28;20228;-82
2022/12/07 03:03:29;;;;;;;8.10;1.40;;;5.40;99.90;;;;;;5074683;28;20205;-80
2022/12/07 03:06:16;;;;;;;9.00;1.67;;;5.50;99.90;;;;;;5074789;28;20209;-81
2022/12/07 03:08:52;;;;;;;5.03;1.50;;;5.60;99.90;;;;;;5074059;28;20689;-80
2022/12/07 03:11:26;;;;;;;11.20;2.17;;;5.60;99.90;;;;;;5074650;28;20609;-80
2022/12/07 03:13:59;;;;;;;10.53;1.53;;;5.60;99.90;;;;;;5073460;28;20237;-80
2022/12/07 03:16:30;;;;;;;10.40;1.60;;;5.60;99.90;;;;;;5074515;28;20566;-80
2022/12/07 03:19:01;;;;;;;13.17;2.03;;;5.60;99.90;;;;;;5074289;28;20204;-80
2022/12/07 03:21:33;;;;;;;8.83;2.27;;;5.50;99.90;;;;;;5093458;28;20609;-80
2022/12/07 03:24:04;;;;;;;13.30;2.07;;;5.60;99.90;;;;;;5093997;28;20755;-79
2022/12/07 03:26:34;;;;;;;12.57;2.43;;;5.60;99.90;;;;;;5094460;28;20192;-78
2022/12/07 03:29:07;;;;;;;12.70;2.07;;;5.60;99.90;;;;;;5090273;28;20193;-80
2022/12/07 03:31:42;;;;;;;8.83;2.17;;;5.60;99.90;;;;;;5093140;28;20232;-81
2022/12/07 03:34:12;;;;;;;7.97;2.07;;;5.80;99.90;;;;;;5080906;28;20627;-78
2022/12/07 03:36:47;;;;;;;6.60;1.53;;;5.90;99.90;;;;;;5073359;28;20614;-81
2022/12/07 03:39:23;;;;;;;6.40;1.70;;;5.90;99.90;;;;;;5074188;28;20521;-79
2022/12/07 03:41:51;;;;;;;11.00;2.63;;;6.00;99.90;;;;;;5073992;28;20197;-80
2022/12/07 03:44:18;;;;;;;9.40;1.63;;;6.00;99.90;;;;;;5073686;28;20211;-81
2022/12/07 03:46:53;;;;;;;8.90;1.97;;;6.00;99.90;;;;;;5073904;28;20300;-81
2022/12/07 03:49:24;;;;;;;9.47;1.63;;;6.00;99.90;;;;;;5073726;28;20195;-79
2022/12/07 03:51:56;;;;;;;5.87;1.10;;;6.00;99.90;;;;;;5073969;28;20205;-81
2022/12/07 03:54:31;;;;;;;5.77;1.47;;;6.00;99.90;;;;;;5073853;28;20203;-79
2022/12/07 03:56:59;;;;;;;5.67;1.70;;;6.00;99.90;;;;;;5073817;28;20211;-79
2022/12/07 03:59:27;;;;;;;10.13;1.70;;;6.00;99.90;;;;;;5073757;28;20213;-80
2022/12/07 04:01:58;;;;;;;5.57;1.30;;;6.00;99.90;;;;;;5091989;28;20604;-80
2022/12/07 04:04:26;;;;;;;8.93;2.17;;;6.10;99.90;;;;;;5086567;28;20731;-83
2022/12/07 04:06:53;;;;;;;6.63;1.90;;;6.10;99.90;;;;;;5091972;28;20531;-79
2022/12/07 04:09:20;;;;;;;9.03;1.63;;;6.10;99.90;;;;;;5094039;28;20622;-81
2022/12/07 04:11:47;;;;;;;12.27;2.77;;;6.10;99.90;;;;;;5073847;28;20688;-81
2022/12/07 04:14:19;;;;;;;11.67;1.67;;;6.10;99.90;;;;;;5073611;28;20216;-80
2022/12/07 04:16:47;;;;;;;6.13;1.50;;;6.10;99.90;;;;;;5073332;28;20225;-82
2022/12/07 04:19:16;;;;;;;8.20;1.70;;;6.10;99.90;;;;;;5073232;28;20232;-80
2022/12/07 04:21:43;;;;;;;6.67;1.90;;;6.10;99.90;;;;;;5073090;28;20233;-78
2022/12/07 04:24:10;;;;;;;6.60;1.30;;;6.20;99.90;;;;;;5086500;28;21044;-81
2022/12/07 04:26:37;;;;;;;5.20;1.10;;;6.30;99.90;;;;;;5088667;28;20692;-81
2022/12/07 04:29:04;;;;;;;2.97;0.73;;;6.30;99.90;;;;;;5073133;28;20288;-80
2022/12/07 04:31:31;;;;;;;1.47;0.80;;;6.30;99.90;;;;;;5072624;28;20225;-81
2022/12/07 04:33:58;;;;;;;3.27;1.00;;;6.20;99.90;;;;;;5073105;28;20201;-81
2022/12/07 04:36:26;;;;;;;4.53;1.07;;;6.10;99.90;;;;;;5081698;28;20540;-81
2022/12/07 04:38:54;;;;;;;5.97;1.30;;;6.10;99.90;;;;;;5074001;28;20339;-81
2022/12/07 04:41:26;;;;;;;4.37;1.10;;;6.10;99.90;;;;;;5073553;28;20599;-82
2022/12/07 04:43:54;;;;;;;2.90;1.17;;;6.10;99.90;;;;;;5072944;28;20205;-81
2022/12/07 04:46:21;;;;;;;6.63;1.10;;;6.10;99.90;;;;;;5072981;28;20224;-81
2022/12/07 04:48:47;;;;;;;4.37;0.97;;;6.00;99.90;;;;;;5073490;28;20200;-79
2022/12/07 04:51:16;;;;;;;3.30;1.00;;;5.90;99.90;;;;;;5073435;28;20205;-81
2022/12/07 04:53:44;;;;;;;2.70;0.90;;;5.80;99.90;;;;;;5072332;28;20284;-79
2022/12/07 04:56:11;;;;;;;4.67;1.00;;;5.70;99.90;;;;;;5073436;28;20288;-82
2022/12/07 04:58:38;;;;;;;2.60;0.90;;;5.60;99.90;;;;;;5073098;28;20201;-79
2022/12/07 05:01:05;;;;;;;4.27;1.13;;;5.50;99.90;;;;;;5076476;28;20295;-82
2022/12/07 05:03:32;;;;;;;3.20;0.93;;;5.40;99.90;;;;;;5093063;28;20232;-79
2022/12/07 05:05:59;;;;;;;3.60;1.07;;;5.40;99.90;;;;;;5091876;28;20612;-81
2022/12/07 05:08:26;;;;;;;3.80;1.10;;;5.30;99.90;;;;;;5087605;28;20201;-82
2022/12/07 05:10:54;;;;;;;6.27;1.30;;;5.20;99.90;;;;;;5072826;28;20230;-80
2022/12/07 05:13:21;;;;;;;2.50;1.40;;;5.20;99.90;;;;;;5072259;28;20316;-80
2022/12/07 05:15:48;;;;;;;4.77;1.30;;;5.20;99.90;;;;;;5072866;28;20217;-81
2022/12/07 05:18:15;;;;;;;3.13;1.33;;;5.10;99.90;;;;;;5072749;28;20202;-80
2022/12/07 05:20:42;;;;;;;3.70;1.20;;;5.10;99.90;;;;;;5072297;28;20312;-80
2022/12/07 05:23:09;;;;;;;5.00;1.50;;;5.10;99.90;;;;;;5072007;28;20276;-82
2022/12/07 05:25:36;;;;;;;5.63;1.10;;;5.00;99.90;;;;;;5071611;28;20306;-82
2022/12/07 05:28:05;;;;;;;5.20;1.17;;;5.00;99.90;;;;;;5070978;28;20620;-80
2022/12/07 05:30:32;;;;;;;4.27;1.40;;;5.00;99.90;;;;;;5072121;28;20207;-79
2022/12/07 05:32:59;;;;;;;4.27;1.10;;;5.00;99.90;;;;;;5072502;28;20571;-80
2022/12/07 05:35:26;;;;;;;1.83;1.10;;;4.90;99.90;;;;;;5071842;28;20240;-80
2022/12/07 05:37:53;;;;;;;3.30;1.07;;;4.90;99.90;;;;;;5082862;28;20554;-79
2022/12/07 05:40:20;;;;;;;3.50;1.10;;;4.80;99.90;;;;;;5092817;28;20579;-77
2022/12/07 05:42:47;;;;;;;3.90;1.13;;;4.80;99.90;;;;;;5073639;28;20292;-78
2022/12/07 05:45:15;;;;;;;10.80;1.47;;;4.70;99.90;;;;;;5071626;28;20288;-79
2022/12/07 05:47:42;;;;;;;7.23;1.17;;;4.60;99.90;;;;;;5072269;28;20221;-79
2022/12/07 05:50:09;;;;;;;6.90;1.47;;;4.60;99.90;;;;;;5071512;28;20197;-80
2022/12/07 05:52:36;;;;;;;5.63;1.50;;;4.70;99.90;;;;;;5071887;28;20221;-80
2022/12/07 05:55:03;;;;;;;7.43;1.50;;;4.70;99.90;;;;;;5071923;28;20253;-80
2022/12/07 05:57:30;;;;;;;6.73;1.63;;;4.70;99.90;;;;;;5071660;28;20203;-78
2022/12/07 05:59:56;;;;;;;3.97;1.00;;;4.80;99.90;;;;;;5071371;28;20197;-80
2022/12/07 06:02:24;;;;;;;8.13;1.80;;;4.80;99.90;;;;;;5071649;28;20211;-80
2022/12/07 06:04:51;;;;;;;12.23;2.30;;;4.80;99.90;;;;;;5089952;28;20589;-81
2022/12/07 06:07:18;;;;;;;7.07;1.33;;;4.80;99.90;;;;;;5095603;28;20287;-80
2022/12/07 06:09:45;;;;;;;10.97;1.63;;;4.80;99.90;;;;;;5095184;28;20205;-80
2022/12/07 06:14:57;;;;;;;6.50;1.30;;;4.80;99.90;;;;;;5075320;28;20216;-80
2022/12/07 06:17:26;;;;;;;7.30;1.20;;;4.80;99.90;;;;;;5080371;28;20200;-79
2022/12/07 06:19:52;;;;;;;6.43;1.20;;;4.80;99.90;;;;;;5095501;28;20197;-80
2022/12/07 06:22:19;;;;;;;4.97;1.97;;;4.80;99.90;;;;;;5095218;28;20193;-79
2022/12/07 06:24:46;;;;;;;4.73;1.50;;;4.70;99.90;;;;;;5089254;28;20827;-80
2022/12/07 06:27:13;;;;;;;6.50;2.10;;;4.70;99.90;;;;;;5074856;28;20254;-79
2022/12/07 06:29:40;;;;;;;2.60;1.17;;;4.60;99.90;;;;;;5075194;28;20205;-79
2022/12/07 06:32:07;;;;;;;4.67;1.03;;;4.60;99.90;;;;;;5074266;28;20423;-79
2022/12/07 06:34:35;;;;;;;4.07;0.90;;;4.50;99.90;;;;;;5079509;28;20240;-81
2022/12/07 06:37:03;;;;;;;3.73;1.20;;;4.50;99.90;;;;;;5074762;28;20204;-80
2022/12/07 06:39:30;;;;;;;3.30;1.20;;;4.40;99.90;;;;;;5074205;28;20237;-81
2022/12/07 06:41:58;;;;;;;3.07;1.20;;;4.40;99.90;;;;;;5074921;28;20510;-82
2022/12/07 06:44:26;;;;;;;3.30;0.90;;;4.30;99.90;;;;;;5074964;28;20493;-81
2022/12/07 06:46:54;;;;;;;1.70;1.00;;;4.30;99.90;;;;;;5095094;28;20289;-81
2022/12/07 06:49:20;;;;;;;2.10;0.80;;;4.20;99.90;;;;;;5081757;28;20204;-81
2022/12/07 06:51:49;;;;;;;8.03;2.63;;;4.10;99.90;;;;;;5074554;28;20229;-81
2022/12/07 06:54:17;;;;;;;5.10;1.80;;;4.10;99.90;;;;;;5074526;28;20202;-81
2022/12/07 06:56:44;;;;;;;4.20;1.13;;;4.00;99.90;;;;;;5073730;28;20730;-80
2022/12/07 06:59:11;;;;;;;2.53;1.00;;;4.00;99.90;;;;;;5073512;28;20204;-81
2022/12/07 07:01:38;;;;;;;9.77;2.90;;;4.00;99.90;;;;;;5074239;28;20203;-81
2022/12/07 07:04:06;;;;;;;4.83;1.40;;;4.00;99.90;;;;;;5074279;28;20193;-79
2022/12/07 07:06:33;;;;;;;8.57;2.77;;;4.00;99.90;;;;;;5073941;28;20201;-81
2022/12/07 07:09:02;;;;;;;12.90;1.70;;;4.10;99.90;;;;;;5074298;28;20203;-81
2022/12/07 07:11:29;;;;;;;7.77;1.13;;;4.30;99.90;;;;;;5074368;28;20193;-80
2022/12/07 07:14:01;;;;;;;12.40;2.40;;;4.50;99.90;;;;;;5072968;28;20326;-82
2022/12/07 07:16:28;;;;;;;4.77;1.40;;;4.80;99.90;;;;;;5072681;28;20213;-81
2022/12/07 07:18:55;;;;;;;6.50;1.57;;;5.00;99.90;;;;;;5073763;28;20205;-80
2022/12/07 07:21:22;;;;;;;4.97;1.30;;;5.00;99.90;;;;;;5074263;28;20784;-78
2022/12/07 07:23:49;;;;;;;5.80;1.80;;;5.00;99.90;;;;;;5093999;28;20683;-79
2022/12/07 07:26:17;;;;;;;5.07;1.60;;;5.10;99.90;;;;;;5093801;28;20203;-80
2022/12/07 07:28:44;;;;;;;6.03;1.27;;;5.20;99.90;;;;;;5093666;28;20201;-81
2022/12/07 07:31:11;;;;;;;8.03;1.37;;;5.20;99.90;;;;;;5078891;28;20499;-79
2022/12/07 07:33:38;;;;;;;5.17;0.90;;;5.20;99.90;;;;;;5073882;28;20313;-82
2022/12/07 07:36:05;;;;;;;5.53;1.10;;;5.20;99.90;;;;;;5075215;28;20204;-81
2022/12/07 07:38:33;;;;;;;1.33;0.80;;;5.20;99.90;;;;;;5094144;28;20563;-80
2022/12/07 07:40:59;;;;;;;2.93;0.93;;;5.20;99.90;;;;;;5093618;28;20215;-79
2022/12/07 07:43:28;;;;;;;7.10;1.37;;;5.20;99.90;;;;;;5093420;28;20281;-79
2022/12/07 07:45:55;;;;;;;5.20;1.20;;;5.20;99.90;;;;;;5093592;28;20485;-79
2022/12/07 07:48:25;;;;;;;3.73;1.10;;;5.20;99.90;;;;;;5092975;28;20303;-79
2022/12/07 07:50:52;;;;;;;5.97;1.20;;;5.20;99.90;;;;;;5093538;28;20201;-80
2022/12/07 07:53:19;;;;;;;4.03;1.03;;;5.20;99.90;;;;;;5086554;28;20279;-80
2022/12/07 07:55:52;;;;;;;3.23;1.10;;;5.20;99.90;;;;;;5073380;28;20228;-82
2022/12/07 07:58:19;;;;;;;4.73;1.27;;;5.10;99.90;;;;;;5073293;28;20255;-80
2022/12/07 08:00:47;;;;;;;7.03;1.13;;;5.10;99.90;;;;;;5087764;28;20211;-82
2022/12/07 08:03:14;;;;;;;5.80;2.33;;;5.10;99.90;;;;;;5093958;28;20200;-82
2022/12/07 08:05:41;;;;;;;6.57;1.70;;;5.10;99.90;;;;;;5105286;28;20210;-80
2022/12/07 08:08:07;;;;;;;8.67;1.70;;;5.10;99.90;;;;;;5077301;28;20211;-81
2022/12/07 08:10:35;;;;;;;5.43;1.30;;;5.10;99.90;;;;;;5080014;28;20194;-80
2022/12/07 08:13:14;;;;;;;6.90;1.47;;;5.20;99.90;;;;;;5102464;28;20235;-81
2022/12/07 08:15:42;;;;;;;7.53;1.23;;;5.20;99.90;;;;;;5101886;28;20644;-78
2022/12/07 08:18:11;;;;;;;4.07;1.10;;;5.30;99.90;;;;;;5105542;28;20207;-82
2022/12/07 08:20:39;;;;;;;5.90;1.30;;;5.20;99.90;;;;;;5096472;28;20587;-82
2022/12/07 08:23:07;;;;;;;5.50;1.07;;;5.30;99.90;;;;;;5096331;28;20679;-81
2022/12/07 08:25:34;;;;;;;4.60;1.30;;;5.20;99.90;;;;;;5106295;28;20502;-81
2022/12/07 08:28:01;;;;;;;3.30;1.07;;;5.20;99.90;;;;;;5097640;28;20214;-82
2022/12/07 08:30:29;;;;;;;3.67;1.30;;;5.20;99.90;;;;;;5105175;28;20245;-81
2022/12/07 08:32:58;;;;;;;4.37;1.27;;;5.20;99.90;;;;;;5088067;28;20290;-80
2022/12/07 08:35:26;;;;;;;5.47;1.23;;;5.20;99.90;;;;;;5072946;28;20575;-80
2022/12/07 08:37:57;;;;;;;6.27;1.30;;;5.20;99.90;;;;;;5081290;28;20608;-78
2022/12/07 08:40:24;;;;;;;4.23;1.10;;;5.20;99.90;;;;;;5107278;28;20357;-80
2022/12/07 08:42:52;;;;;;;3.77;1.10;;;5.20;99.90;;;;;;5091959;28;20511;-81
2022/12/07 08:45:20;;;;;;;9.83;1.90;;;5.20;99.90;;;;;;5090992;28;20618;-80
2022/12/07 08:47:51;;;;;;;6.03;1.50;;;5.20;99.90;;;;;;5086219;28;20295;-81
2022/12/07 08:50:18;;;;;;;8.83;1.60;;;5.20;99.90;;;;;;5092012;28;20228;-80
2022/12/07 08:52:51;;;;;;;6.00;1.60;;;5.30;99.90;;;;;;5071705;28;20220;-81
2022/12/07 08:55:19;;;;;;;6.33;1.80;;;5.40;99.90;;;;;;5072898;28;20276;-79
2022/12/07 08:57:46;;;;;;;5.13;1.23;;;5.40;99.90;;;;;;5093159;28;20207;-80
2022/12/07 09:00:14;;;;;;;9.97;3.60;;;5.40;99.90;;;;;;5092858;28;20552;-81
2022/12/07 09:02:41;;;;;;;2.80;1.10;;;5.40;99.90;;;;;;5082412;28;20197;-80
2022/12/07 09:05:09;;;;;;;2.13;1.00;;;5.40;99.90;;;;;;5072611;28;20503;-78
2022/12/07 09:07:37;;;;;;;4.53;1.17;;;5.40;99.90;;;;;;5071870;28;20201;-81
2022/12/07 09:10:07;;;;;;;3.00;1.07;;;5.40;99.90;;;;;;5078640;28;20223;-80
2022/12/07 09:12:34;;;;;;;3.50;1.00;;;5.50;99.90;;;;;;5112553;28;20240;-81
2022/12/07 09:15:01;;;;;;;2.63;1.10;;;5.60;99.90;;;;;;5113352;28;20243;-81
2022/12/07 09:17:28;;;;;;;3.07;0.93;;;5.70;99.90;;;;;;5086279;28;20220;-83
2022/12/07 09:19:55;;;;;;;6.13;1.30;;;5.70;99.90;;;;;;5071792;28;20182;-82
2022/12/07 09:22:22;;;;;;;10.10;1.70;;;5.80;99.90;;;;;;5073303;28;20205;-82
2022/12/07 09:24:49;;;;;;;4.83;1.47;;;5.80;99.90;;;;;;5073651;28;20230;-82
2022/12/07 09:27:18;;;;;;;5.73;1.17;;;5.80;99.90;;;;;;5072922;28;20205;-79
2022/12/07 09:29:45;;;;;;;7.60;1.53;;;5.90;99.90;;;;;;5072957;28;20589;-82
2022/12/07 09:32:12;;;;;;;9.17;1.80;;;6.10;99.90;;;;;;5072710;28;20581;-82
2022/12/07 09:34:39;;;;;;;7.80;1.97;;;6.10;99.90;;;;;;5072992;28;20238;-83
2022/12/07 09:37:06;;;;;;;6.87;1.57;;;6.20;99.90;;;;;;5073304;28;20266;-81
2022/12/07 09:39:33;;;;;;;6.70;1.90;;;6.20;99.90;;;;;;5091571;28;20201;-83
2022/12/07 09:42:04;;;;;;;13.73;3.27;;;6.20;99.90;;;;;;5088402;28;20601;-82
2022/12/07 09:44:33;;;;;;;5.40;1.80;;;6.20;99.90;;;;;;5080582;28;20192;-82
2022/12/07 09:47:00;;;;;;;7.47;2.67;;;6.10;99.90;;;;;;5076781;28;20198;-81
2022/12/07 09:49:31;;;;;;;7.47;1.67;;;6.10;99.90;;;;;;5085225;28;20220;-81
2022/12/07 09:52:03;;;;;;;5.87;1.60;;;6.10;99.90;;;;;;5096633;28;20196;-82
2022/12/07 09:54:31;;;;;;;10.20;3.40;;;6.10;99.90;;;;;;5094811;28;20266;-81
2022/12/07 09:56:59;;;;;;;5.70;2.00;;;6.10;99.90;;;;;;5094549;28;20219;-80
2022/12/07 09:59:26;;;;;;;6.87;2.03;;;6.10;99.90;;;;;;5094243;28;20223;-79
2022/12/07 10:01:54;;;;;;;7.60;1.87;;;6.10;99.90;;;;;;5078659;28;20207;-80
2022/12/07 10:04:24;;;;;;;5.97;1.30;;;6.10;99.90;;;;;;5078772;28;20302;-80
2022/12/07 10:06:51;;;;;;;6.60;1.80;;;6.20;99.90;;;;;;5088587;28;20235;-80
2022/12/07 10:09:20;;;;;;;6.07;1.53;;;6.20;99.90;;;;;;5093784;28;20212;-78
2022/12/07 10:12:04;;;;;;;7.43;1.47;;;6.20;99.90;;;;;;5093337;28;20203;-79
2022/12/07 10:14:33;;;;;;;8.93;1.47;;;6.20;99.90;;;;;;5077088;28;20505;-80
2022/12/07 10:17:02;;;;;;;6.90;2.17;;;6.20;99.90;;;;;;5093054;28;20220;-82
2022/12/07 10:19:30;;;;;;;3.17;1.00;;;6.30;99.90;;;;;;5095219;28;20204;-80
2022/12/07 10:22:10;;;;;;;6.20;1.20;;;6.30;99.90;;;;;;5083941;28;20239;-80
2022/12/07 10:24:39;;;;;;;5.77;1.10;;;6.40;99.90;;;;;;5094752;28;20683;-80
2022/12/07 10:27:06;;;;;;;8.13;1.37;;;6.40;99.90;;;;;;5075117;28;20215;-80
2022/12/07 10:29:36;;;;;;;3.63;1.23;;;6.40;99.90;;;;;;5074706;28;20207;-79
2022/12/07 10:32:26;;;;;;;5.77;1.30;;;6.50;99.90;;;;;;5074013;28;20201;-78
2022/12/07 10:35:20;;;;;;;3.73;1.47;;;6.50;99.90;;;;;;5074427;28;20662;-80
2022/12/07 10:37:47;;;;;;;5.57;1.73;;;6.60;99.90;;;;;;5074394;28;20751;-79
2022/12/07 10:40:28;;;;;;;8.33;1.23;;;6.70;99.90;;;;;;5074274;28;20223;-79
2022/12/07 10:43:19;;;;;;;11.30;1.60;;;6.80;99.90;;;;;;5075500;28;20196;-80
2022/12/07 10:46:14;;;;;;;6.57;1.00;;;7.00;99.90;;;;;;5073514;28;20500;-80
2022/12/07 10:48:52;;;;;;;7.90;1.27;;;7.20;99.90;;;;;;5074379;28;20620;-77
2022/12/07 10:51:27;;;;;;;3.70;0.80;;;7.30;99.90;;;;;;5073155;28;20208;-80
2022/12/07 10:54:04;;;;;;;1.97;0.70;;;7.40;99.90;;;;;;5074341;28;20208;-80
2022/12/07 10:56:44;;;;;;;4.60;1.10;;;7.50;99.90;;;;;;5074408;28;20196;-79
2022/12/07 10:59:37;;;;;;;5.00;0.87;;;7.40;99.90;;;;;;5073302;28;20211;-78
2022/12/07 11:02:26;;;;;;;2.57;0.87;;;7.40;99.90;;;;;;5074284;28;20187;-79
2022/12/07 11:05:10;;;;;;;4.40;0.90;;;7.30;99.90;;;;;;5074422;28;20201;-80
2022/12/07 11:07:46;;;;;;;4.47;1.00;;;7.30;99.90;;;;;;5074220;28;20848;-79
2022/12/07 11:10:19;;;;;;;3.97;1.10;;;7.40;99.90;;;;;;5086614;28;20200;-79
2022/12/07 11:13:01;;;;;;;6.07;2.00;;;7.50;99.90;;;;;;5091024;28;20786;-77
2022/12/07 11:15:37;;;;;;;6.83;1.73;;;7.40;99.90;;;;;;5093880;28;20228;-80
2022/12/07 11:18:08;;;;;;;2.63;1.00;;;7.30;99.90;;;;;;5090955;28;20580;-78
2022/12/07 11:20:47;;;;;;;5.57;1.83;;;7.20;99.90;;;;;;5082345;28;20563;-78
2022/12/07 11:23:22;;;;;;;4.33;0.97;;;7.20;99.90;;;;;;5081066;28;20201;-79
2022/12/07 11:26:00;;;;;;;5.90;2.27;;;7.10;99.90;;;;;;5073223;28;20205;-80
2022/12/07 11:28:42;;;;;;;6.93;1.10;;;7.10;99.90;;;;;;5073303;28;20186;-79
2022/12/07 11:31:19;;;;;;;4.87;1.20;;;7.10;99.90;;;;;;5072782;28;20204;-78
2022/12/07 11:33:49;;;;;;;3.13;1.00;;;7.10;99.90;;;;;;5071746;28;20311;-78
2022/12/07 11:36:34;;;;;;;2.97;1.30;;;7.10;99.90;;;;;;5072844;28;20280;-79
2022/12/07 11:39:04;;;;;;;6.63;1.93;;;7.10;99.90;;;;;;5072802;28;20197;-78
2022/12/07 11:41:36;;;;;;;4.07;1.70;;;7.20;99.90;;;;;;5079197;28;20200;-77
2022/12/07 11:44:07;;;;;;;7.60;1.80;;;7.20;99.90;;;;;;5093303;28;20209;-77
2022/12/07 11:46:46;;;;;;;4.73;1.40;;;7.20;99.90;;;;;;5085204;28;20197;-78
2022/12/07 11:49:20;;;;;;;5.87;0.97;;;7.30;99.90;;;;;;5078852;28;20664;-78
2022/12/07 11:51:52;;;;;;;4.73;1.13;;;7.40;99.90;;;;;;5092933;28;20192;-78
2022/12/07 11:54:24;;;;;;;6.13;0.97;;;7.40;99.90;;;;;;5092517;28;20269;-79
2022/12/07 11:56:55;;;;;;;4.03;1.30;;;7.60;99.90;;;;;;5077616;28;20212;-80
2022/12/07 11:59:30;;;;;;;5.83;1.10;;;7.60;99.90;;;;;;5072672;28;20223;-79
2022/12/07 12:02:04;;;;;;;8.40;2.33;;;7.60;99.90;;;;;;5090408;28;20508;-78
2022/12/07 12:04:44;;;;;;;2.87;1.53;;;7.70;99.90;;;;;;5078421;28;20220;-78
2022/12/07 12:07:18;;;;;;;5.27;1.20;;;7.70;99.90;;;;;;5072662;28;20281;-78
2022/12/07 12:09:52;;;;;;;4.47;1.00;;;7.70;99.90;;;;;;5072197;28;20557;-78
2022/12/07 12:12:46;;;;;;;2.73;1.20;;;7.60;99.90;;;;;;5072047;28;20590;-78
2022/12/07 12:15:31;;;;;;;3.70;0.80;;;7.50;99.90;;;;;;5072353;28;20308;-78
2022/12/07 12:18:25;;;;;;;3.37;0.97;;;7.40;99.90;;;;;;5072127;28;20505;-78
2022/12/07 12:20:57;;;;;;;3.33;1.20;;;7.40;99.90;;;;;;5072274;28;20288;-79
2022/12/07 12:23:31;;;;;;;5.03;1.10;;;7.40;99.90;;;;;;5071989;28;20205;-77
2022/12/07 12:26:00;;;;;;;3.43;1.00;;;7.40;99.90;;;;;;5090474;28;20195;-78
2022/12/07 12:28:33;;;;;;;4.50;0.80;;;7.40;99.90;;;;;;5090471;28;20215;-79
2022/12/07 12:31:11;;;;;;;2.87;0.77;;;7.30;99.90;;;;;;5084954;28;20197;-80
2022/12/07 12:33:39;;;;;;;6.43;1.13;;;7.30;99.90;;;;;;5090265;28;20208;-79
2022/12/07 12:36:43;;;;;;;3.63;1.20;;;7.30;99.90;;;;;;5090190;28;20279;-77
2022/12/07 12:39:14;;;;;;;2.70;1.00;;;7.30;99.90;;;;;;5091884;28;20321;-79
2022/12/07 12:42:18;;;;;;;5.23;1.23;;;7.30;99.90;;;;;;5090201;28;20206;-78
2022/12/07 12:45:19;;;;;;;2.67;1.00;;;7.30;99.90;;;;;;5071400;28;20287;-79
2022/12/07 12:48:04;;;;;;;4.53;0.97;;;7.40;99.90;;;;;;5099148;28;20212;-78
2022/12/07 12:50:33;;;;;;;2.63;1.00;;;7.40;99.90;;;;;;5070779;28;20197;-79
2022/12/07 12:53:26;;;;;;;2.30;1.10;;;7.50;99.90;;;;;;5075938;28;20227;-79
2022/12/07 12:59:27;;;;;;;3.10;1.10;;;7.70;99.90;;;;;;5150216;27;20296;-79
2022/12/07 13:02:06;;;;;;;6.73;1.03;;;7.70;99.90;;;;;;5124228;28;20195;-80
2022/12/07 13:05:05;;;;;;;2.53;1.23;;;7.80;99.90;;;;;;5109280;28;20213;-79
2022/12/07 13:07:56;;;;;;;10.10;2.03;;;7.90;99.90;;;;;;5109186;28;20188;-80
2022/12/07 13:10:38;;;;;;;6.17;1.33;;;7.90;99.90;;;;;;5102152;22;20370;-80
2022/12/07 13:13:29;;;;;;;6.33;1.03;;;8.00;99.90;;;;;;5084442;28;20216;-79
2022/12/07 13:16:38;;;;;;;4.03;0.93;;;8.10;99.90;;;;;;5068731;28;20217;-80
2022/12/07 13:19:38;;;;;;;3.87;1.40;;;8.20;99.90;;;;;;5063056;28;20525;-79
2022/12/07 13:22:26;;;;;;;4.23;1.60;;;8.30;99.90;;;;;;5068377;28;20201;-79